createdAt,value
2022-11-13T00:01:49.662Z,85.45
2022-11-13T00:03:51.174Z,72.50
2022-11-13T00:06:02.432Z,83.22
2022-11-13T00:08:04.039Z,79.10
2022-11-13T00:10:06.104Z,91.40
2022-11-13T00:12:07.611Z,85.88
2022-11-13T00:14:09.092Z,87.13
2022-11-13T00:16:13.686Z,83.18
2022-11-13T00:18:15.180Z,84.70
2022-11-13T00:20:18.225Z,88.63
2022-11-13T00:22:19.987Z,84.03
2022-11-13T00:24:21.563Z,81.93
2022-11-13T00:26:29.303Z,98.47
2022-11-13T00:28:31.010Z,127.40
2022-11-13T00:30:32.700Z,113.95
2022-11-13T00:32:34.277Z,122.38
2022-11-13T00:34:51.024Z,115.07
2022-11-13T00:36:52.486Z,87.18
2022-11-13T00:38:55.133Z,95.95
2022-11-13T00:40:57.184Z,108.75
2022-11-13T00:42:58.650Z,91.93
2022-11-13T00:45:00.132Z,102.05
2022-11-13T00:47:01.894Z,97.90
2022-11-13T00:49:03.595Z,105.78
2022-11-13T00:51:05.290Z,119.03
2022-11-13T00:53:06.735Z,113.88
2022-11-13T00:55:08.458Z,113.68
2022-11-13T00:57:09.962Z,115.65
2022-11-13T00:59:11.487Z,113.53
2022-11-13T01:01:16.734Z,111.68
2022-11-13T01:03:18.315Z,117.88
2022-11-13T01:05:19.783Z,101.60
2022-11-13T01:07:21.298Z,112.35
2022-11-13T01:09:22.915Z,138.57
2022-11-13T01:11:26.843Z,110.18
2022-11-13T01:13:28.379Z,115.53
2022-11-13T01:15:29.852Z,99.75
2022-11-13T01:17:31.335Z,118.97
2022-11-13T01:19:32.896Z,106.05
2022-11-13T01:21:34.397Z,118.85
2022-11-13T01:23:36.630Z,113.78
2022-11-13T01:25:38.152Z,123.45
2022-11-13T01:27:39.684Z,126.60
2022-11-13T01:29:41.362Z,117.03
2022-11-13T01:31:42.883Z,113.20
2022-11-13T01:33:45.365Z,122.57
2022-11-13T01:35:46.813Z,110.90
2022-11-13T01:37:48.276Z,112.50
2022-11-13T01:39:49.795Z,122.30
2022-11-13T01:41:51.330Z,118.18
2022-11-13T01:43:54.495Z,119.95
2022-11-13T01:45:58.920Z,128.55
2022-11-13T01:48:00.375Z,123.07
2022-11-13T01:50:02.445Z,125.68
2022-11-13T01:52:10.430Z,127.57
2022-11-13T01:54:17.389Z,139.05
2022-11-13T01:56:19.685Z,144.07
2022-11-13T01:58:21.267Z,135.98
2022-11-13T02:00:22.896Z,145.27
2022-11-13T02:02:24.660Z,143.38
2022-11-13T02:04:27.483Z,148.38
2022-11-13T02:06:35.387Z,152.05
2022-11-13T02:08:36.900Z,142.50
2022-11-13T02:10:38.463Z,155.18
2022-11-13T02:12:43.463Z,152.85
2022-11-13T02:14:49.613Z,154.35
2022-11-13T02:16:54.399Z,147.13
2022-11-13T02:18:56.074Z,154.10
2022-11-13T02:21:06.606Z,159.82
2022-11-13T02:23:24.457Z,158.27
2022-11-13T02:25:29.317Z,159.48
2022-11-13T02:27:34.694Z,154.65
2022-11-13T02:29:36.586Z,169.10
2022-11-13T02:31:38.052Z,177.98
2022-11-13T02:33:39.825Z,180.20
2022-11-13T02:35:41.286Z,181.18
2022-11-13T02:37:42.967Z,168.45
2022-11-13T02:39:44.415Z,175.25
2022-11-13T02:41:45.973Z,162.00
2022-11-13T02:43:47.459Z,174.15
2022-11-13T02:45:49.028Z,184.88
2022-11-13T02:47:50.551Z,189.30
2022-11-13T02:49:52.033Z,178.77
2022-11-13T02:51:53.587Z,184.82
2022-11-13T02:53:55.225Z,195.45
2022-11-13T02:55:56.719Z,178.75
2022-11-13T02:57:58.182Z,167.65
2022-11-13T02:59:59.746Z,162.35
2022-11-13T03:02:01.285Z,165.38
2022-11-13T03:04:02.840Z,173.65
2022-11-13T03:06:04.533Z,155.98
2022-11-13T03:08:06.997Z,187.52
2022-11-13T03:10:10.494Z,178.90
2022-11-13T03:12:11.960Z,178.00
2022-11-13T03:14:13.403Z,183.93
2022-11-13T03:16:16.278Z,191.13
2022-11-13T03:18:17.833Z,206.10
2022-11-13T03:20:19.366Z,197.15
2022-11-13T03:22:20.823Z,184.48
2022-11-13T03:24:22.428Z,218.05
2022-11-13T03:26:24.214Z,204.68
2022-11-13T03:28:25.929Z,200.40
2022-11-13T03:30:28.009Z,194.20
2022-11-13T03:32:29.527Z,203.15
2022-11-13T03:34:31.026Z,206.27
2022-11-13T03:36:32.481Z,225.57
2022-11-13T03:38:34.846Z,232.10
2022-11-13T03:40:36.312Z,231.43
2022-11-13T03:42:37.946Z,206.75
2022-11-13T03:44:39.488Z,215.38
2022-11-13T03:46:40.952Z,213.27
2022-11-13T03:48:42.428Z,212.93
2022-11-13T03:50:46.120Z,213.48
2022-11-13T03:52:47.631Z,200.55
2022-11-13T03:54:49.092Z,183.93
2022-11-13T03:56:50.626Z,205.25
2022-11-13T03:58:52.215Z,199.43
2022-11-13T04:00:55.703Z,180.13
2022-11-13T04:02:57.375Z,178.63
2022-11-13T04:04:58.932Z,243.38
2022-11-13T04:07:00.460Z,283.42
2022-11-13T04:09:02.134Z,260.90
2022-11-13T04:11:11.063Z,253.88
2022-11-13T04:13:12.714Z,163.73
2022-11-13T04:15:14.323Z,207.68
2022-11-13T04:17:15.858Z,208.30
2022-11-13T04:19:17.404Z,176.15
2022-11-13T04:21:18.847Z,196.40
2022-11-13T04:23:20.283Z,203.98
2022-11-13T04:25:21.770Z,199.90
2022-11-13T04:27:23.247Z,192.40
2022-11-13T04:29:24.673Z,199.07
2022-11-13T04:31:26.439Z,199.73
2022-11-13T04:33:27.970Z,206.93
2022-11-13T04:35:29.405Z,196.15
2022-11-13T04:37:30.872Z,194.05
2022-11-13T04:39:32.332Z,215.32
2022-11-13T04:41:55.334Z,206.35
2022-11-13T04:43:57.088Z,190.95
2022-11-13T04:45:58.582Z,184.27
2022-11-13T04:48:00.107Z,172.63
2022-11-13T04:50:01.971Z,194.15
2022-11-13T04:52:03.590Z,183.93
2022-11-13T04:54:05.132Z,173.20
2022-11-13T04:56:06.862Z,178.18
2022-11-13T04:58:08.313Z,183.40
2022-11-13T05:00:10.604Z,187.63
2022-11-13T05:02:12.143Z,176.82
2022-11-13T05:04:15.477Z,157.95
2022-11-13T05:06:16.936Z,184.15
2022-11-13T05:08:18.369Z,206.90
2022-11-13T05:10:19.911Z,192.88
2022-11-13T05:12:21.379Z,205.38
2022-11-13T05:14:22.885Z,201.05
2022-11-13T05:16:24.386Z,200.82
2022-11-13T05:18:27.023Z,217.05
2022-11-13T05:20:28.700Z,198.05
2022-11-13T05:22:30.243Z,196.20
2022-11-13T05:24:32.223Z,204.55
2022-11-13T05:26:33.674Z,187.05
2022-11-13T05:28:35.519Z,176.43
2022-11-13T05:30:36.972Z,193.23
2022-11-13T05:32:38.404Z,194.27
2022-11-13T05:34:39.934Z,189.13
2022-11-13T05:36:41.731Z,187.48
2022-11-13T05:38:43.673Z,192.45
2022-11-13T05:40:45.114Z,189.02
2022-11-13T05:42:46.648Z,209.55
2022-11-13T05:44:48.078Z,189.07
2022-11-13T05:46:49.554Z,172.93
2022-11-13T05:48:59.353Z,193.23
2022-11-13T05:53:06.352Z,158.63
2022-11-13T05:55:08.607Z,170.05
2022-11-13T05:57:10.188Z,193.90
2022-11-13T05:59:12.015Z,177.23
2022-11-13T06:01:20.277Z,171.10
2022-11-13T06:03:21.788Z,155.77
2022-11-13T06:05:23.256Z,176.52
2022-11-13T06:07:24.717Z,173.38
2022-11-13T06:09:26.217Z,155.77
2022-11-13T06:11:29.786Z,164.00
2022-11-13T06:13:31.439Z,157.40
2022-11-13T06:15:32.906Z,159.18
2022-11-13T06:17:34.367Z,166.77
2022-11-13T06:19:35.825Z,175.00
2022-11-13T06:21:39.936Z,171.35
2022-11-13T06:23:42.235Z,176.45
2022-11-13T06:25:43.699Z,157.98
2022-11-13T06:27:45.248Z,163.20
2022-11-13T06:29:47.083Z,153.20
2022-11-13T06:31:48.629Z,141.52
2022-11-13T06:33:50.704Z,146.90
2022-11-13T06:35:52.543Z,143.23
2022-11-13T06:37:57.388Z,143.90
2022-11-13T06:39:58.992Z,143.18
2022-11-13T06:42:00.455Z,135.57
2022-11-13T06:44:03.254Z,153.02
2022-11-13T06:46:08.862Z,153.82
2022-11-13T06:48:13.606Z,150.30
2022-11-13T06:50:15.134Z,171.73
2022-11-13T06:52:16.585Z,140.93
2022-11-13T06:54:18.044Z,133.02
2022-11-13T06:56:20.642Z,124.53
2022-11-13T06:58:22.515Z,125.75
2022-11-13T07:00:24.039Z,119.15
2022-11-13T07:02:25.539Z,87.70
2022-11-13T07:04:27.131Z,95.05
2022-11-13T07:06:28.592Z,105.20
2022-11-13T07:08:31.406Z,122.78
2022-11-13T07:10:32.998Z,117.10
2022-11-13T07:12:34.423Z,114.72
2022-11-13T07:14:35.891Z,112.18
2022-11-13T07:17:04.335Z,112.97
2022-11-13T07:18:58.869Z,99.47
2022-11-13T07:21:08.598Z,103.50
2022-11-13T07:23:10.490Z,103.93
2022-11-13T07:25:11.965Z,116.50
2022-11-13T07:27:13.432Z,113.75
2022-11-13T07:29:15.774Z,122.50
2022-11-13T07:31:18.172Z,114.35
2022-11-13T07:33:19.718Z,110.25
2022-11-13T07:35:21.331Z,98.55
2022-11-13T07:37:22.769Z,112.10
2022-11-13T07:39:24.235Z,92.53
2022-11-13T07:41:25.758Z,95.70
2022-11-13T07:43:27.646Z,93.80
2022-11-13T07:45:29.272Z,90.10
2022-11-13T07:47:30.789Z,87.28
2022-11-13T07:49:32.272Z,91.82
2022-11-13T07:51:33.798Z,91.40
2022-11-13T07:53:36.086Z,95.40
2022-11-13T07:55:37.590Z,96.97
2022-11-13T07:57:39.045Z,98.90
2022-11-13T07:59:40.558Z,84.15
2022-11-13T08:01:42.084Z,93.68
2022-11-13T08:03:43.670Z,93.00
2022-11-13T08:05:45.339Z,93.97
2022-11-13T08:07:51.361Z,99.20
2022-11-13T08:09:53.076Z,89.00
2022-11-13T08:11:54.604Z,91.95
2022-11-13T08:13:56.162Z,99.57
2022-11-13T08:16:02.758Z,91.60
2022-11-13T08:18:04.731Z,115.10
2022-11-13T08:20:07.556Z,86.15
2022-11-13T08:22:09.106Z,170.02
2022-11-13T08:24:10.631Z,78.28
2022-11-13T08:26:12.143Z,79.22
2022-11-13T08:28:13.704Z,83.38
2022-11-13T08:30:15.591Z,85.53
2022-11-13T08:32:18.484Z,74.82
2022-11-13T08:34:20.146Z,78.40
2022-11-13T08:36:21.792Z,79.32
2022-11-13T08:38:24.064Z,101.05
2022-11-13T08:40:25.543Z,398.05
2022-11-13T08:42:27.028Z,115.38
2022-11-13T08:44:28.652Z,80.38
2022-11-13T08:46:30.174Z,75.20
2022-11-13T08:48:32.161Z,115.93
2022-11-13T08:50:34.365Z,280.70
2022-11-13T08:52:35.956Z,114.57
2022-11-13T08:54:37.470Z,112.85
2022-11-13T08:56:39.172Z,99.45
2022-11-13T08:58:40.668Z,71.68
2022-11-13T09:00:42.170Z,80.30
2022-11-13T09:02:44.375Z,89.40
2022-11-13T09:04:45.933Z,74.68
2022-11-13T09:06:47.471Z,65.75
2022-11-13T09:08:49.018Z,68.57
2022-11-13T09:10:50.528Z,78.72
2022-11-13T09:13:01.568Z,120.57
2022-11-13T09:15:03.138Z,83.68
2022-11-13T09:17:04.916Z,83.45
2022-11-13T09:19:06.958Z,82.40
2022-11-13T09:21:08.503Z,70.07
2022-11-13T09:23:09.986Z,72.95
2022-11-13T09:25:11.472Z,75.55
2022-11-13T09:27:13.038Z,90.63
2022-11-13T09:29:14.994Z,84.63
2022-11-13T09:31:16.513Z,70.72
2022-11-13T09:33:18.061Z,65.30
2022-11-13T09:35:33.930Z,70.30
2022-11-13T09:37:35.490Z,68.60
2022-11-13T09:39:36.958Z,66.32
2022-11-13T09:41:47.586Z,65.22
2022-11-13T09:44:05.078Z,64.22
2022-11-13T09:46:17.298Z,69.00
2022-11-13T09:48:33.878Z,63.22
2022-11-13T09:50:40.738Z,68.82
2022-11-13T09:52:44.923Z,66.20
2022-11-13T09:54:46.426Z,63.28
2022-11-13T09:56:55.409Z,70.30
2022-11-13T09:59:12.768Z,62.83
2022-11-13T10:01:23.244Z,135.50
2022-11-13T10:06:43.129Z,187.20
2022-11-13T10:08:51.118Z,68.43
2022-11-13T10:10:58.694Z,66.40
2022-11-13T10:13:01.227Z,117.90
2022-11-13T10:15:07.183Z,63.85
2022-11-13T10:17:18.997Z,57.25
2022-11-13T10:19:29.944Z,202.80
2022-11-13T10:21:37.355Z,122.40
2022-11-13T10:23:39.325Z,105.15
2022-11-13T10:25:42.408Z,166.13
2022-11-13T10:27:56.905Z,111.65
2022-11-13T10:30:03.031Z,63.40
2022-11-13T10:32:27.096Z,57.00
2022-11-13T10:34:32.029Z,55.05
2022-11-13T10:36:52.100Z,98.15
2022-11-13T10:39:09.198Z,64.28
2022-11-13T10:41:22.848Z,69.68
2022-11-13T10:43:26.306Z,57.88
2022-11-13T10:45:28.017Z,75.90
2022-11-13T10:49:57.293Z,83.65
2022-11-13T10:52:01.249Z,81.57
2022-11-13T10:54:21.688Z,79.88
2022-11-13T10:56:30.324Z,85.15
2022-11-13T10:58:32.143Z,70.68
2022-11-13T11:00:36.662Z,88.15
2022-11-13T11:02:38.458Z,82.30
2022-11-13T11:04:39.925Z,91.05
2022-11-13T11:07:17.965Z,119.82
2022-11-13T11:09:30.126Z,106.47
2022-11-13T11:11:50.251Z,61.90
2022-11-13T11:13:51.728Z,60.85
2022-11-13T11:16:01.550Z,69.13
2022-11-13T11:20:39.248Z,58.53
2022-11-13T11:22:41.106Z,67.28
2022-11-13T11:24:56.569Z,59.25
2022-11-13T11:27:23.293Z,56.30
2022-11-13T11:29:46.524Z,141.77
2022-11-13T11:32:11.278Z,67.68
2022-11-13T11:34:45.187Z,54.75
2022-11-13T11:37:11.624Z,55.42
2022-11-13T11:39:38.006Z,70.85
2022-11-13T11:42:21.189Z,58.05
2022-11-13T11:44:52.705Z,56.38
2022-11-13T11:46:54.388Z,51.08
2022-11-13T11:49:01.092Z,57.08
2022-11-13T11:51:26.736Z,234.07
2022-11-13T11:53:56.151Z,69.18
2022-11-13T11:56:24.785Z,85.65
2022-11-13T11:58:54.924Z,58.13
2022-11-13T12:01:17.989Z,63.90
2022-11-13T12:03:53.344Z,49.53
2022-11-13T12:06:22.207Z,54.10
2022-11-13T12:08:36.367Z,60.75
2022-11-13T12:10:59.732Z,52.78
2022-11-13T12:13:40.771Z,54.70
2022-11-13T12:16:11.986Z,118.88
2022-11-13T12:18:37.128Z,66.30
2022-11-13T12:21:17.399Z,59.22
2022-11-13T12:23:34.112Z,51.47
2022-11-13T12:25:39.500Z,49.50
2022-11-13T12:27:54.455Z,57.28
2022-11-13T12:30:29.253Z,58.65
2022-11-13T12:32:42.725Z,56.85
2022-11-13T12:34:58.254Z,51.40
2022-11-13T12:37:04.169Z,55.80
2022-11-13T12:39:21.227Z,57.00
2022-11-13T12:41:45.541Z,56.40
2022-11-13T12:44:24.727Z,90.88
2022-11-13T12:46:38.819Z,77.50
2022-11-13T12:48:45.798Z,61.28
2022-11-13T12:50:59.487Z,62.42
2022-11-13T12:53:12.668Z,71.20
2022-11-13T12:55:29.721Z,72.53
2022-11-13T12:57:32.912Z,60.95
2022-11-13T12:59:52.950Z,70.55
2022-11-13T13:02:16.169Z,51.60
2022-11-13T13:04:54.876Z,70.43
2022-11-13T13:07:02.341Z,51.50
2022-11-13T13:09:35.865Z,72.50
2022-11-13T13:11:43.553Z,55.03
2022-11-13T13:13:53.744Z,63.90
2022-11-13T13:15:58.587Z,57.95
2022-11-13T13:18:11.834Z,62.20
2022-11-13T13:20:13.872Z,50.95
2022-11-13T13:22:32.011Z,51.72
2022-11-13T13:24:36.730Z,54.13
2022-11-13T13:26:46.773Z,54.28
2022-11-13T13:29:21.770Z,89.53
2022-11-13T13:31:41.695Z,91.05
2022-11-13T13:36:37.953Z,64.72
2022-11-13T13:38:53.058Z,89.68
2022-11-13T13:41:01.268Z,62.63
2022-11-13T13:43:37.977Z,91.53
2022-11-13T13:45:42.082Z,79.03
2022-11-13T13:47:47.031Z,116.60
2022-11-13T13:49:48.618Z,58.67
2022-11-13T13:51:52.613Z,548.85
2022-11-13T13:54:00.229Z,120.97
2022-11-13T13:56:03.635Z,118.88
2022-11-13T13:58:12.082Z,78.85
2022-11-13T14:00:15.748Z,98.47
2022-11-13T14:02:25.760Z,162.65
2022-11-13T14:04:34.916Z,103.05
2022-11-13T14:06:36.513Z,104.80
2022-11-13T14:08:38.866Z,84.97
2022-11-13T14:10:40.311Z,107.60
2022-11-13T14:12:46.018Z,76.72
2022-11-13T14:14:47.975Z,82.85
2022-11-13T14:16:51.659Z,90.97
2022-11-13T14:19:03.846Z,76.78
2022-11-13T14:21:21.166Z,73.20
2022-11-13T14:23:29.379Z,74.65
2022-11-13T14:25:31.474Z,94.32
2022-11-13T14:27:33.037Z,118.03
2022-11-13T14:29:38.416Z,124.13
2022-11-13T14:31:39.996Z,130.25
2022-11-13T14:33:48.355Z,134.32
2022-11-13T14:35:55.405Z,174.30
2022-11-13T14:38:00.626Z,192.98
2022-11-13T14:40:27.438Z,200.73
2022-11-13T14:42:37.403Z,222.60
2022-11-13T14:44:42.384Z,130.98
2022-11-13T14:46:48.339Z,110.55
2022-11-13T14:48:57.472Z,108.78
2022-11-13T14:51:23.103Z,130.90
2022-11-13T14:53:39.065Z,285.65
2022-11-13T14:55:52.553Z,244.15
2022-11-13T14:57:54.057Z,206.60
2022-11-13T14:59:55.522Z,185.77
2022-11-13T15:01:58.158Z,131.07
2022-11-13T15:03:59.733Z,131.38
2022-11-13T15:06:01.859Z,156.27
2022-11-13T15:08:03.426Z,160.07
2022-11-13T15:10:05.412Z,149.05
2022-11-13T15:12:11.156Z,219.63
2022-11-13T15:14:14.435Z,132.73
2022-11-13T15:16:20.075Z,129.15
2022-11-13T15:18:21.675Z,156.23
2022-11-13T15:20:26.563Z,134.35
2022-11-13T15:22:28.787Z,200.18
2022-11-13T15:24:30.428Z,175.05
2022-11-13T15:26:31.843Z,159.63
2022-11-13T15:28:33.396Z,176.77
2022-11-13T15:30:35.001Z,223.77
2022-11-13T15:32:36.925Z,216.70
2022-11-13T15:34:38.463Z,329.90
2022-11-13T15:36:40.635Z,172.05
2022-11-13T15:38:42.224Z,150.32
2022-11-13T15:40:43.711Z,143.65
2022-11-13T15:42:45.287Z,272.65
2022-11-13T15:44:46.767Z,315.63
2022-11-13T15:46:48.352Z,576.45
2022-11-13T15:48:50.428Z,271.25
2022-11-13T15:50:52.226Z,399.15
2022-11-13T15:52:53.995Z,380.20
2022-11-13T15:54:56.205Z,250.15
2022-11-13T15:56:57.758Z,433.30
2022-11-13T15:58:59.895Z,329.25
2022-11-13T16:01:01.522Z,471.08
2022-11-13T16:03:04.711Z,306.67
2022-11-13T16:05:06.447Z,246.02
2022-11-13T16:07:18.495Z,202.88
2022-11-13T16:09:20.013Z,171.90
2022-11-13T16:11:21.535Z,185.05
2022-11-13T16:13:23.057Z,179.80
2022-11-13T16:15:24.497Z,170.98
2022-11-13T16:17:26.003Z,173.43
2022-11-13T16:19:27.483Z,195.98
2022-11-13T16:21:29.097Z,223.80
2022-11-13T16:23:31.156Z,212.00
2022-11-13T16:25:33.051Z,225.25
2022-11-13T16:27:34.568Z,260.13
2022-11-13T16:29:36.051Z,225.57
2022-11-13T16:31:37.503Z,219.00
2022-11-13T16:33:39.487Z,515.53
2022-11-13T16:35:41.071Z,209.95
2022-11-13T16:37:42.875Z,210.25
2022-11-13T16:39:45.572Z,226.75
2022-11-13T16:41:47.360Z,298.83
2022-11-13T16:43:48.840Z,275.58
2022-11-13T16:45:52.281Z,419.42
2022-11-13T16:47:54.010Z,453.33
2022-11-13T16:49:55.549Z,180.27
2022-11-13T16:51:57.082Z,252.75
2022-11-13T16:53:58.538Z,205.52
2022-11-13T16:56:00.979Z,179.45
2022-11-13T16:58:04.120Z,371.83
2022-11-13T17:00:07.263Z,158.68
2022-11-13T17:02:13.451Z,163.50
2022-11-13T17:04:15.004Z,171.05
2022-11-13T17:06:46.418Z,319.65
2022-11-13T17:08:52.179Z,168.13
2022-11-13T17:10:57.587Z,260.27
2022-11-13T17:12:59.412Z,184.18
2022-11-13T17:15:00.893Z,185.20
2022-11-13T17:17:06.638Z,430.05
2022-11-13T17:19:12.604Z,428.17
2022-11-13T17:21:14.744Z,270.40
2022-11-13T17:23:16.341Z,307.98
2022-11-13T17:25:18.906Z,243.40
2022-11-13T17:27:20.402Z,231.73
2022-11-13T17:29:21.863Z,154.48
2022-11-13T17:31:23.444Z,161.43
2022-11-13T17:33:24.895Z,207.02
2022-11-13T17:35:26.396Z,180.50
2022-11-13T17:37:27.876Z,158.75
2022-11-13T17:39:29.417Z,171.93
2022-11-13T17:41:31.006Z,247.55
2022-11-13T17:43:35.660Z,427.40
2022-11-13T17:45:38.511Z,283.83
2022-11-13T17:47:39.959Z,213.65
2022-11-13T17:49:41.472Z,146.57
2022-11-13T17:51:43.001Z,156.10
2022-11-13T17:53:44.526Z,162.23
2022-11-13T17:55:53.500Z,149.40
2022-11-13T17:57:58.928Z,195.75
2022-11-13T18:00:00.479Z,162.20
2022-11-13T18:02:02.628Z,177.55
2022-11-13T18:04:04.467Z,458.48
2022-11-13T18:06:08.386Z,286.55
2022-11-13T18:08:13.580Z,248.60
2022-11-13T18:10:15.148Z,270.92
2022-11-13T18:12:16.573Z,262.20
2022-11-13T18:14:19.012Z,196.50
2022-11-13T18:16:24.327Z,171.32
2022-11-13T18:18:25.818Z,227.60
2022-11-13T18:20:27.872Z,253.20
2022-11-13T18:22:29.440Z,176.98
2022-11-13T18:24:30.927Z,164.98
2022-11-13T18:26:33.225Z,173.73
2022-11-13T18:28:34.804Z,169.13
2022-11-13T18:30:39.347Z,288.50
2022-11-13T18:32:40.862Z,270.25
2022-11-13T18:34:42.295Z,201.80
2022-11-13T18:36:44.061Z,159.73
2022-11-13T18:38:46.031Z,154.65
2022-11-13T18:40:47.701Z,190.75
2022-11-13T18:42:51.063Z,164.20
2022-11-13T18:44:52.579Z,151.75
2022-11-13T18:46:54.079Z,189.88
2022-11-13T18:48:56.431Z,360.15
2022-11-13T18:51:00.410Z,150.43
2022-11-13T18:53:01.872Z,152.50
2022-11-13T18:55:03.534Z,171.48
2022-11-13T18:57:05.030Z,245.18
2022-11-13T18:59:07.032Z,173.18
2022-11-13T19:01:21.820Z,127.07
2022-11-13T19:03:24.706Z,170.43
2022-11-13T19:05:26.188Z,160.48
2022-11-13T19:07:27.826Z,192.65
2022-11-13T19:09:29.437Z,244.90
2022-11-13T19:11:31.949Z,259.92
2022-11-13T19:13:34.456Z,280.85
2022-11-13T19:15:37.863Z,216.43
2022-11-13T19:17:39.317Z,209.43
2022-11-13T19:19:42.285Z,172.13
2022-11-13T19:21:44.056Z,177.07
2022-11-13T19:23:45.705Z,221.90
2022-11-13T19:25:50.166Z,180.55
2022-11-13T19:27:54.207Z,175.63
2022-11-13T19:29:55.720Z,161.77
2022-11-13T19:31:57.238Z,153.85
2022-11-13T19:34:03.521Z,243.40
2022-11-13T19:36:10.398Z,235.57
2022-11-13T19:38:11.859Z,260.90
2022-11-13T19:40:13.433Z,232.98
2022-11-13T19:42:14.947Z,217.85
2022-11-13T19:44:16.451Z,211.27
2022-11-13T19:46:19.236Z,199.73
2022-11-13T19:48:20.655Z,195.55
2022-11-13T19:50:22.120Z,183.63
2022-11-13T19:52:23.626Z,178.68
2022-11-13T19:54:25.226Z,187.20
2022-11-13T19:56:28.487Z,242.88
2022-11-13T19:58:30.549Z,226.65
2022-11-13T20:00:32.234Z,299.67
2022-11-13T20:02:33.695Z,239.60
2022-11-13T20:04:35.140Z,245.80
2022-11-13T20:06:36.570Z,225.48
2022-11-13T20:08:38.387Z,211.93
2022-11-13T20:10:39.863Z,210.52
2022-11-13T20:12:41.359Z,226.70
2022-11-13T20:14:42.840Z,227.70
2022-11-13T20:16:44.484Z,226.93
2022-11-13T20:18:45.951Z,223.48
2022-11-13T20:20:54.260Z,220.07
2022-11-13T20:22:56.259Z,220.93
2022-11-13T20:24:57.687Z,216.88
2022-11-13T20:26:59.316Z,206.68
2022-11-13T20:29:01.221Z,228.85
2022-11-13T20:31:05.944Z,237.02
2022-11-13T20:33:07.391Z,242.27
2022-11-13T20:35:09.532Z,284.35
2022-11-13T20:37:11.044Z,300.27
2022-11-13T20:39:12.568Z,258.17
2022-11-13T20:41:14.167Z,243.40
2022-11-13T20:43:15.765Z,240.43
2022-11-13T20:45:17.222Z,253.30
2022-11-13T20:47:18.775Z,266.77
2022-11-13T20:49:20.317Z,223.95
2022-11-13T20:51:25.631Z,301.42
2022-11-13T20:53:27.209Z,276.23
2022-11-13T20:55:28.701Z,255.68
2022-11-13T20:57:30.174Z,281.80
2022-11-13T20:59:31.680Z,274.70
2022-11-13T21:01:36.565Z,327.48
2022-11-13T21:03:41.311Z,319.42
2022-11-13T21:05:43.031Z,277.58
2022-11-13T21:07:44.495Z,282.02
2022-11-13T21:09:48.929Z,286.65
2022-11-13T21:11:51.608Z,307.15
2022-11-13T21:13:55.285Z,280.15
2022-11-13T21:15:56.788Z,252.48
2022-11-13T21:17:58.466Z,258.15
2022-11-13T21:19:59.989Z,226.55
2022-11-13T21:22:01.697Z,233.27
2022-11-13T21:24:03.526Z,238.85
2022-11-13T21:26:06.664Z,252.98
2022-11-13T21:28:08.264Z,261.45
2022-11-13T21:30:10.176Z,258.38
2022-11-13T21:32:11.612Z,249.88
2022-11-13T21:34:14.039Z,266.58
2022-11-13T21:36:16.824Z,232.48
2022-11-13T21:38:18.737Z,219.85
2022-11-13T21:40:20.736Z,344.50
2022-11-13T21:42:22.211Z,291.15
2022-11-13T21:44:23.679Z,318.80
2022-11-13T21:46:27.766Z,333.02
2022-11-13T21:48:33.009Z,313.67
2022-11-13T21:50:34.903Z,308.88
2022-11-13T21:52:36.406Z,277.33
2022-11-13T21:54:37.925Z,274.15
2022-11-13T21:56:39.535Z,282.70
2022-11-13T21:58:41.608Z,293.55
2022-11-13T22:00:43.724Z,370.10
2022-11-13T22:02:45.327Z,296.88
2022-11-13T22:04:46.770Z,339.38
2022-11-13T22:06:49.832Z,299.25
2022-11-13T22:09:03.283Z,312.85
2022-11-13T22:11:05.099Z,306.33
2022-11-13T22:13:06.558Z,296.30
2022-11-13T22:15:10.079Z,296.42
2022-11-13T22:17:11.562Z,312.92
2022-11-13T22:19:15.906Z,309.60
2022-11-13T22:21:17.366Z,305.70
2022-11-13T22:23:18.847Z,301.55
2022-11-13T22:25:20.391Z,308.55
2022-11-13T22:27:21.883Z,299.55
2022-11-13T22:29:23.336Z,313.70
2022-11-13T22:31:27.799Z,297.02
2022-11-13T22:33:31.238Z,300.33
2022-11-13T22:35:32.691Z,281.95
2022-11-13T22:37:34.220Z,269.33
2022-11-13T22:39:35.685Z,262.58
2022-11-13T22:41:37.152Z,258.20
2022-11-13T22:43:41.264Z,240.23
2022-11-13T22:45:42.750Z,243.65
2022-11-13T22:47:44.198Z,244.23
2022-11-13T22:49:45.731Z,255.45
2022-11-13T22:51:47.192Z,246.00
2022-11-13T22:53:50.859Z,244.65
2022-11-13T22:55:53.383Z,231.88
2022-11-13T22:57:54.859Z,255.60
2022-11-13T22:59:56.300Z,243.82
2022-11-13T23:01:57.806Z,210.43
2022-11-13T23:04:04.950Z,244.25
2022-11-13T23:06:07.847Z,250.13
2022-11-13T23:08:09.351Z,255.55
2022-11-13T23:10:10.819Z,247.80
2022-11-13T23:12:12.347Z,233.73
2022-11-13T23:14:15.889Z,231.32
2022-11-13T23:16:18.578Z,194.38
2022-11-13T23:18:20.027Z,237.82
2022-11-13T23:20:21.504Z,222.75
2022-11-13T23:22:22.961Z,232.27
2022-11-13T23:24:24.457Z,200.23
2022-11-13T23:26:26.985Z,205.90
2022-11-13T23:28:29.055Z,254.43
2022-11-13T23:30:30.751Z,215.05
2022-11-13T23:32:32.231Z,210.05
2022-11-13T23:34:58.289Z,228.50
2022-11-13T23:36:55.282Z,226.23
2022-11-13T23:38:56.730Z,222.27
2022-11-13T23:40:59.438Z,237.35
2022-11-13T23:43:00.945Z,258.08
2022-11-13T23:45:02.475Z,237.82
2022-11-13T23:47:04.856Z,292.98
2022-11-13T23:49:06.319Z,240.68
2022-11-13T23:51:07.876Z,256.90
2022-11-13T23:53:09.986Z,262.23
2022-11-13T23:55:12.023Z,249.93
2022-11-13T23:57:13.531Z,225.82
2022-11-13T23:59:14.995Z,162.88
